Time;durP1;ratioP1;P1;durP2;ratioP2;P2;SDS_P1;SDS_P2;PMS_P1;PMS_P2;Temp;Humidity;BMP_temperature;BMP_pressure;BME280_temperature;BME280_humidity;BME280_pressure;Samples;Min_cycle;Max_cycle;Signal;HPM_P1;HPM_P2
2023/08/31 00:01:40;;;;;;;2.90;2.70;;;16.40;81.40;;;;;;5027295;28;20025;-63
2023/08/31 00:04:14;;;;;;;3.25;2.65;;;16.50;81.50;;;;;;5031653;28;20060;-63
2023/08/31 00:06:40;;;;;;;4.20;3.10;;;16.50;81.50;;;;;;5030337;28;20036;-63
2023/08/31 00:09:09;;;;;;;3.00;2.80;;;16.50;81.50;;;;;;5030331;28;20552;-63
2023/08/31 00:11:35;;;;;;;4.10;3.20;;;16.40;81.60;;;;;;5027389;28;20041;-63
2023/08/31 00:14:01;;;;;;;4.03;3.63;;;16.40;82.00;;;;;;5031800;28;20152;-63
2023/08/31 00:16:27;;;;;;;3.85;3.47;;;16.30;82.20;;;;;;5032344;28;20490;-63
2023/08/31 00:18:54;;;;;;;4.50;3.60;;;16.30;82.40;;;;;;5032949;28;20519;-63
2023/08/31 00:21:21;;;;;;;3.92;3.63;;;16.20;82.60;;;;;;5033266;28;20029;-62
2023/08/31 00:23:46;;;;;;;4.07;3.67;;;16.10;82.80;;;;;;5027151;28;20045;-63
2023/08/31 00:26:12;;;;;;;3.92;3.60;;;16.10;83.20;;;;;;5026755;28;20665;-63
2023/08/31 00:28:38;;;;;;;3.85;3.55;;;16.10;83.50;;;;;;5029173;28;20143;-62
2023/08/31 00:31:04;;;;;;;4.13;3.72;;;16.00;83.80;;;;;;5028214;28;20112;-63
2023/08/31 00:33:30;;;;;;;3.60;3.30;;;16.00;84.10;;;;;;5027402;28;20040;-63
2023/08/31 00:36:01;;;;;;;3.58;3.28;;;16.00;84.20;;;;;;5030560;28;20065;-63
2023/08/31 00:38:27;;;;;;;3.95;3.25;;;16.00;84.30;;;;;;5027406;28;20083;-63
2023/08/31 00:40:54;;;;;;;4.13;3.25;;;16.00;84.50;;;;;;5026220;28;20244;-64
2023/08/31 00:43:20;;;;;;;3.22;2.92;;;16.00;84.60;;;;;;5026287;28;20211;-63
2023/08/31 00:45:48;;;;;;;2.88;2.67;;;16.00;84.80;;;;;;5025754;28;20099;-64
2023/08/31 00:48:17;;;;;;;3.28;3.00;;;16.00;85.00;;;;;;5025366;28;20207;-64
2023/08/31 00:50:46;;;;;;;4.32;2.85;;;16.00;85.20;;;;;;5026742;28;20463;-63
2023/08/31 00:53:12;;;;;;;3.00;2.75;;;16.00;85.20;;;;;;5028513;28;20044;-64
2023/08/31 00:55:40;;;;;;;2.72;2.53;;;15.90;84.90;;;;;;5026515;28;20504;-64
2023/08/31 00:58:07;;;;;;;2.53;2.22;;;16.00;85.00;;;;;;5025310;28;20064;-63
2023/08/31 01:01:17;;;;;;;2.72;2.50;;;16.00;85.10;;;;;;5024311;28;20041;-63
2023/08/31 01:03:53;;;;;;;2.58;2.25;;;16.00;85.60;;;;;;5027942;28;20500;-64
2023/08/31 01:06:55;;;;;;;2.55;2.35;;;16.00;85.20;;;;;;5031541;28;20218;-63
2023/08/31 01:09:47;;;;;;;2.70;2.35;;;16.00;86.00;;;;;;5027210;28;20025;-62
2023/08/31 01:12:21;;;;;;;2.90;2.70;;;15.90;85.70;;;;;;5029984;28;20543;-63
2023/08/31 01:15:10;;;;;;;2.53;2.15;;;15.90;85.30;;;;;;5033712;28;20245;-63
2023/08/31 01:17:45;;;;;;;2.50;2.10;;;15.90;86.00;;;;;;5034158;28;20037;-63
2023/08/31 01:20:14;;;;;;;2.40;2.20;;;15.80;85.60;;;;;;5031937;28;20125;-63
2023/08/31 01:22:55;;;;;;;2.38;2.00;;;15.80;85.70;;;;;;5028569;28;20033;-64
2023/08/31 01:25:21;;;;;;;2.80;2.22;;;15.80;86.40;;;;;;5030584;28;20505;-63
2023/08/31 01:27:47;;;;;;;2.88;2.17;;;15.80;85.90;;;;;;5031874;28;20045;-64
2023/08/31 01:30:13;;;;;;;3.83;2.10;;;15.80;85.90;;;;;;5028054;28;20064;-64
2023/08/31 01:32:45;;;;;;;2.40;1.85;;;15.80;85.90;;;;;;5031270;28;20056;-64
2023/08/31 01:35:11;;;;;;;1.60;1.50;;;15.80;86.40;;;;;;5026283;28;20124;-64
2023/08/31 01:37:46;;;;;;;1.60;1.50;;;15.80;86.20;;;;;;5029798;28;20049;-63
2023/08/31 01:40:21;;;;;;;2.55;1.60;;;15.80;86.70;;;;;;5031166;28;20029;-63
2023/08/31 01:42:47;;;;;;;1.55;1.45;;;15.80;86.60;;;;;;5026430;28;20570;-63
2023/08/31 01:45:17;;;;;;;1.77;1.50;;;15.80;86.40;;;;;;5027433;28;20512;-64
2023/08/31 01:47:43;;;;;;;2.03;1.63;;;15.70;86.40;;;;;;5028191;28;20041;-64
2023/08/31 01:50:09;;;;;;;1.40;1.30;;;15.70;86.70;;;;;;5028690;28;20090;-63
2023/08/31 01:52:34;;;;;;;2.50;1.60;;;15.70;86.70;;;;;;5029429;28;20034;-63
2023/08/31 01:55:00;;;;;;;1.95;1.70;;;15.70;86.90;;;;;;5032526;28;20025;-63
2023/08/31 01:57:26;;;;;;;1.40;1.30;;;15.70;87.00;;;;;;5028341;28;20041;-63
2023/08/31 01:59:51;;;;;;;1.40;1.30;;;15.70;87.10;;;;;;5031647;28;20087;-64
2023/08/31 02:02:17;;;;;;;1.67;1.58;;;15.70;87.10;;;;;;5027275;28;20118;-63
2023/08/31 02:04:43;;;;;;;1.50;1.40;;;15.80;87.00;;;;;;5030461;28;20209;-64
2023/08/31 02:07:09;;;;;;;2.55;1.02;;;15.80;87.00;;;;;;5024884;28;20038;-64
2023/08/31 02:09:34;;;;;;;1.55;1.45;;;15.90;86.80;;;;;;5031951;28;20048;-63
2023/08/31 02:12:00;;;;;;;1.42;1.30;;;15.90;86.60;;;;;;5026380;28;20073;-64
2023/08/31 02:14:25;;;;;;;1.52;1.42;;;15.90;86.60;;;;;;5035597;28;20033;-63
2023/08/31 02:16:51;;;;;;;2.45;1.33;;;15.90;86.60;;;;;;5035956;28;20064;-63
2023/08/31 02:19:17;;;;;;;2.45;1.30;;;15.90;86.40;;;;;;5031310;28;20044;-64
2023/08/31 02:21:42;;;;;;;1.80;1.67;;;15.90;86.30;;;;;;5033317;28;20025;-63
2023/08/31 02:24:08;;;;;;;1.40;1.20;;;15.90;86.20;;;;;;5034222;28;20037;-63
2023/08/31 02:26:37;;;;;;;2.15;1.40;;;15.90;86.00;;;;;;5030996;28;20044;-63
2023/08/31 02:29:02;;;;;;;1.75;1.45;;;15.90;86.00;;;;;;5027874;28;20030;-63
2023/08/31 02:31:28;;;;;;;1.63;1.42;;;15.90;85.90;;;;;;5030892;28;20099;-64
2023/08/31 02:33:54;;;;;;;1.45;1.30;;;15.90;86.00;;;;;;5029650;28;20037;-63
2023/08/31 02:36:20;;;;;;;2.28;1.50;;;15.80;86.00;;;;;;5026391;28;20042;-63
2023/08/31 02:38:46;;;;;;;1.77;1.67;;;15.80;86.20;;;;;;5029131;28;20038;-63
2023/08/31 02:41:12;;;;;;;1.98;1.60;;;15.80;86.30;;;;;;5046496;28;20284;-64
2023/08/31 02:43:39;;;;;;;1.65;1.55;;;15.80;86.40;;;;;;5029573;28;20412;-64
2023/08/31 02:46:04;;;;;;;1.70;1.60;;;15.80;86.60;;;;;;5027947;28;20036;-63
2023/08/31 02:48:32;;;;;;;1.50;1.40;;;15.70;86.50;;;;;;5026279;28;20037;-63
2023/08/31 02:51:00;;;;;;;2.20;1.65;;;15.70;86.60;;;;;;5028113;28;20496;-64
2023/08/31 02:53:27;;;;;;;2.13;1.92;;;15.80;86.60;;;;;;5026197;28;20049;-64
2023/08/31 02:55:52;;;;;;;3.05;1.70;;;15.70;86.50;;;;;;5028301;28;20504;-63
2023/08/31 02:58:19;;;;;;;1.70;1.60;;;15.70;86.50;;;;;;5028537;28;20296;-63
2023/08/31 03:00:47;;;;;;;3.72;1.70;;;15.70;86.60;;;;;;5032354;28;20043;-63
2023/08/31 03:03:16;;;;;;;1.55;1.45;;;15.70;86.60;;;;;;5030652;28;20053;-64
2023/08/31 03:05:41;;;;;;;2.33;1.70;;;15.70;86.60;;;;;;5029820;28;20052;-64
2023/08/31 03:08:07;;;;;;;1.88;1.77;;;15.70;87.40;;;;;;5029527;28;20037;-63
2023/08/31 03:10:33;;;;;;;1.70;1.60;;;15.70;86.60;;;;;;5029814;28;20087;-64
2023/08/31 03:12:58;;;;;;;1.60;1.50;;;15.70;86.60;;;;;;5028537;28;20091;-63
2023/08/31 03:15:24;;;;;;;2.00;1.80;;;15.70;86.70;;;;;;5029627;28;20052;-63
2023/08/31 03:17:49;;;;;;;2.40;1.95;;;15.70;86.70;;;;;;5032213;28;20520;-64
2023/08/31 03:20:15;;;;;;;1.90;1.80;;;15.70;86.70;;;;;;5030432;28;20338;-64
2023/08/31 03:22:41;;;;;;;2.22;1.60;;;15.70;86.70;;;;;;5028305;28;20064;-64
2023/08/31 03:25:07;;;;;;;1.95;1.85;;;15.60;86.70;;;;;;5026783;28;20041;-64
2023/08/31 03:27:32;;;;;;;2.47;1.70;;;15.60;86.90;;;;;;5029370;28;20044;-63
2023/08/31 03:29:58;;;;;;;1.52;1.42;;;15.60;86.80;;;;;;5024654;28;20045;-64
2023/08/31 03:32:23;;;;;;;1.60;1.50;;;15.60;86.90;;;;;;5028250;28;20029;-64
2023/08/31 03:34:49;;;;;;;1.90;1.80;;;15.60;86.90;;;;;;5027819;28;20029;-64
2023/08/31 03:37:15;;;;;;;1.70;1.60;;;15.60;86.90;;;;;;5029428;28;20029;-63
2023/08/31 03:39:42;;;;;;;1.65;1.55;;;15.60;86.90;;;;;;5025476;28;20037;-64
2023/08/31 03:42:10;;;;;;;2.60;1.98;;;15.60;86.90;;;;;;5026758;28;20029;-63
2023/08/31 03:44:37;;;;;;;1.60;1.50;;;15.60;86.90;;;;;;5028707;28;20109;-63
2023/08/31 03:47:03;;;;;;;1.77;1.67;;;15.60;87.00;;;;;;5027541;28;20056;-64
2023/08/31 03:49:30;;;;;;;2.47;1.83;;;15.60;86.90;;;;;;5025703;28;20596;-64
2023/08/31 03:51:55;;;;;;;2.60;1.77;;;15.60;86.90;;;;;;5027769;28;20115;-63
2023/08/31 03:54:21;;;;;;;1.58;1.48;;;15.70;86.90;;;;;;5029120;28;20497;-63
2023/08/31 03:56:46;;;;;;;1.85;1.50;;;15.70;86.90;;;;;;5028604;28;20064;-64
2023/08/31 03:59:12;;;;;;;2.20;1.48;;;15.70;87.00;;;;;;5026513;28;20033;-64
2023/08/31 04:01:38;;;;;;;1.67;1.58;;;15.70;86.90;;;;;;5029385;28;20042;-64
2023/08/31 04:04:04;;;;;;;1.70;1.45;;;15.70;87.00;;;;;;5027658;28;20036;-64
2023/08/31 04:06:30;;;;;;;1.63;1.50;;;15.70;87.00;;;;;;5027820;28;20037;-64
2023/08/31 04:08:56;;;;;;;1.70;1.45;;;15.70;86.90;;;;;;5025440;28;20057;-64
2023/08/31 04:11:21;;;;;;;1.90;1.50;;;15.70;87.00;;;;;;5024194;28;20046;-64
2023/08/31 04:13:47;;;;;;;2.72;1.30;;;15.70;87.10;;;;;;5030899;28;20041;-64
2023/08/31 04:16:13;;;;;;;2.97;1.50;;;15.70;87.20;;;;;;5034126;28;20056;-64
2023/08/31 04:18:38;;;;;;;1.67;1.58;;;15.70;87.30;;;;;;5030931;28;20055;-64
2023/08/31 04:21:04;;;;;;;1.95;1.67;;;15.70;87.30;;;;;;5034067;28;20081;-63
2023/08/31 04:23:30;;;;;;;1.92;1.48;;;15.70;87.30;;;;;;5029405;28;20416;-64
2023/08/31 04:25:57;;;;;;;2.10;1.70;;;15.70;87.30;;;;;;5024267;28;20037;-63
2023/08/31 04:28:23;;;;;;;1.35;1.25;;;15.70;87.20;;;;;;5029190;28;20057;-64
2023/08/31 04:30:49;;;;;;;4.57;1.80;;;15.80;87.30;;;;;;5015491;28;20119;-64
2023/08/31 04:33:15;;;;;;;2.65;1.55;;;15.80;87.40;;;;;;5024434;28;20057;-63
2023/08/31 04:35:41;;;;;;;2.47;1.83;;;15.80;87.40;;;;;;5028637;28;20528;-63
2023/08/31 04:38:07;;;;;;;2.92;1.50;;;15.80;87.30;;;;;;5023803;28;20492;-61
2023/08/31 04:40:33;;;;;;;2.47;1.63;;;15.80;87.20;;;;;;5020725;28;20071;-64
2023/08/31 04:42:58;;;;;;;1.60;1.40;;;15.80;87.10;;;;;;5025119;28;20041;-62
2023/08/31 04:45:24;;;;;;;3.63;1.30;;;15.80;87.00;;;;;;5025781;28;20079;-64
2023/08/31 04:47:51;;;;;;;2.67;1.65;;;15.80;87.00;;;;;;5020251;28;20519;-64
2023/08/31 04:50:17;;;;;;;2.90;1.77;;;15.80;87.90;;;;;;5024146;28;20065;-65
2023/08/31 04:52:42;;;;;;;2.63;1.60;;;15.80;87.00;;;;;;5024672;28;20132;-64
2023/08/31 04:55:08;;;;;;;1.90;1.70;;;15.80;87.10;;;;;;5026644;28;20041;-64
2023/08/31 04:57:34;;;;;;;2.67;1.65;;;15.80;87.10;;;;;;5025820;28;20037;-64
2023/08/31 05:00:00;;;;;;;1.90;1.73;;;15.80;87.20;;;;;;5025965;28;20532;-64
2023/08/31 05:02:25;;;;;;;4.40;1.80;;;15.70;87.10;;;;;;5030942;28;20144;-64
2023/08/31 05:04:51;;;;;;;1.70;1.52;;;15.80;87.20;;;;;;5034514;28;20041;-65
2023/08/31 05:07:17;;;;;;;2.38;1.42;;;15.80;87.10;;;;;;5033308;28;20064;-64
2023/08/31 05:09:42;;;;;;;1.90;1.60;;;15.80;87.10;;;;;;5033204;28;20135;-64
2023/08/31 05:12:08;;;;;;;1.60;1.50;;;15.70;87.50;;;;;;5034820;28;20390;-64
2023/08/31 05:14:37;;;;;;;2.38;1.70;;;15.80;87.00;;;;;;5034958;28;20095;-65
2023/08/31 05:17:04;;;;;;;2.00;1.60;;;15.70;86.90;;;;;;5037836;28;20060;-64
2023/08/31 05:19:30;;;;;;;1.50;1.33;;;15.70;86.80;;;;;;5036930;28;20515;-64
2023/08/31 05:21:56;;;;;;;1.40;1.30;;;15.70;86.90;;;;;;5036479;28;20288;-64
2023/08/31 05:24:22;;;;;;;3.65;1.50;;;15.70;86.90;;;;;;5029465;28;20561;-64
2023/08/31 05:26:48;;;;;;;2.00;1.77;;;15.70;86.90;;;;;;5035288;28;20029;-64
2023/08/31 05:29:14;;;;;;;2.15;1.92;;;15.70;86.90;;;;;;5036510;28;20220;-64
2023/08/31 05:31:39;;;;;;;4.70;2.03;;;15.70;86.90;;;;;;5033774;28;20512;-64
2023/08/31 05:34:05;;;;;;;2.40;1.67;;;15.70;87.20;;;;;;5030119;28;20504;-63
2023/08/31 05:36:30;;;;;;;2.13;1.67;;;15.70;87.30;;;;;;5032224;28;20069;-65
2023/08/31 05:38:56;;;;;;;2.13;1.90;;;15.70;87.40;;;;;;5032742;28;20048;-63
2023/08/31 05:41:22;;;;;;;2.53;1.50;;;15.70;87.40;;;;;;5028964;28;20386;-64
2023/08/31 05:43:47;;;;;;;3.25;1.98;;;15.70;87.70;;;;;;5032491;28;20119;-64
2023/08/31 05:46:13;;;;;;;1.85;1.75;;;15.70;87.80;;;;;;5032746;28;20038;-64
2023/08/31 05:48:38;;;;;;;2.95;1.83;;;15.70;88.00;;;;;;5029000;28;20132;-64
2023/08/31 05:51:04;;;;;;;2.22;1.90;;;15.70;88.00;;;;;;5032254;28;20413;-64
2023/08/31 05:53:30;;;;;;;2.22;1.80;;;15.70;88.10;;;;;;5032474;28;20043;-64
2023/08/31 05:56:03;;;;;;;2.63;1.80;;;15.80;88.30;;;;;;5033271;28;20060;-65
2023/08/31 05:58:33;;;;;;;2.65;1.67;;;15.80;88.20;;;;;;5034970;28;20503;-64
2023/08/31 06:00:59;;;;;;;2.85;1.90;;;15.80;88.30;;;;;;5029347;28;20041;-64
2023/08/31 06:03:26;;;;;;;2.10;1.73;;;15.80;88.60;;;;;;5034598;28;20144;-63
2023/08/31 06:05:51;;;;;;;2.03;1.83;;;15.90;87.90;;;;;;5034594;28;20032;-65
2023/08/31 06:08:17;;;;;;;2.08;1.70;;;15.90;87.80;;;;;;5032577;28;20758;-61
2023/08/31 06:10:43;;;;;;;2.35;1.70;;;15.90;87.90;;;;;;5028528;28;20103;-64
2023/08/31 06:13:08;;;;;;;2.45;1.98;;;15.90;87.80;;;;;;5033409;28;20037;-64
2023/08/31 06:15:34;;;;;;;3.05;1.80;;;15.90;87.90;;;;;;5032208;28;20040;-64
2023/08/31 06:17:59;;;;;;;3.28;1.83;;;16.00;88.00;;;;;;5030500;28;20057;-64
2023/08/31 06:20:25;;;;;;;2.83;2.00;;;16.00;87.90;;;;;;5027362;28;20366;-65
2023/08/31 06:22:50;;;;;;;2.10;1.75;;;16.00;87.60;;;;;;5030638;28;20544;-64
2023/08/31 06:25:18;;;;;;;2.17;1.98;;;16.00;87.60;;;;;;5031978;28;20094;-64
2023/08/31 06:27:44;;;;;;;4.57;2.20;;;16.00;87.40;;;;;;5030831;28;20534;-65
2023/08/31 06:30:15;;;;;;;4.47;2.17;;;16.00;87.40;;;;;;5030696;28;20111;-64
2023/08/31 06:32:42;;;;;;;4.40;2.10;;;16.00;87.30;;;;;;5031326;28;20409;-64
2023/08/31 06:35:08;;;;;;;4.75;2.25;;;16.10;87.60;;;;;;5031798;28;20497;-64
2023/08/31 06:37:33;;;;;;;2.75;1.92;;;16.10;87.40;;;;;;5032114;28;20036;-64
2023/08/31 06:39:59;;;;;;;4.13;1.85;;;16.10;87.30;;;;;;5034568;28;20033;-64
2023/08/31 06:42:24;;;;;;;2.22;1.80;;;16.10;87.20;;;;;;5033596;28;20532;-65
2023/08/31 06:44:51;;;;;;;3.00;2.10;;;16.10;87.40;;;;;;5032685;28;20041;-64
2023/08/31 06:47:17;;;;;;;6.15;2.17;;;16.10;87.40;;;;;;5033429;28;20087;-62
2023/08/31 06:49:43;;;;;;;2.50;1.77;;;16.10;87.60;;;;;;5033526;28;20091;-63
2023/08/31 06:52:08;;;;;;;3.35;1.80;;;16.20;87.40;;;;;;5033122;28;20041;-64
2023/08/31 06:54:34;;;;;;;2.65;1.67;;;16.20;87.30;;;;;;5035005;28;20405;-63
2023/08/31 06:57:00;;;;;;;3.03;1.85;;;16.30;87.40;;;;;;5031449;28;20272;-64
2023/08/31 06:59:26;;;;;;;3.22;1.80;;;16.30;87.50;;;;;;5025981;28;20036;-64
2023/08/31 07:01:51;;;;;;;3.33;1.80;;;16.30;87.80;;;;;;5028938;28;20064;-64
2023/08/31 07:04:17;;;;;;;4.00;2.00;;;16.40;87.90;;;;;;5027657;28;20136;-64
2023/08/31 07:06:42;;;;;;;3.47;1.50;;;16.40;87.70;;;;;;5024020;28;20037;-63
2023/08/31 07:09:08;;;;;;;2.72;1.77;;;16.40;87.50;;;;;;5032076;28;20417;-63
2023/08/31 07:11:34;;;;;;;1.77;1.60;;;16.50;87.50;;;;;;5028657;28;20472;-64
2023/08/31 07:14:00;;;;;;;3.20;1.80;;;16.60;87.40;;;;;;5032306;28;20661;-64
2023/08/31 07:16:26;;;;;;;2.78;1.50;;;16.60;87.40;;;;;;5029222;28;20048;-64
2023/08/31 07:18:51;;;;;;;1.33;1.20;;;16.60;87.10;;;;;;5028018;28;20092;-64
2023/08/31 07:21:17;;;;;;;3.42;1.67;;;16.70;87.00;;;;;;5028401;28;20492;-64
2023/08/31 07:23:43;;;;;;;3.53;1.45;;;16.70;86.90;;;;;;5031138;28;20504;-64
2023/08/31 07:26:08;;;;;;;3.17;1.30;;;16.70;86.90;;;;;;5031782;28;20029;-64
2023/08/31 07:28:34;;;;;;;1.73;1.45;;;16.80;86.80;;;;;;5031519;28;20552;-63
2023/08/31 07:31:03;;;;;;;1.70;1.40;;;16.80;86.60;;;;;;5028424;28;20409;-64
2023/08/31 07:33:30;;;;;;;2.10;1.95;;;16.80;86.50;;;;;;5027356;28;20048;-63
2023/08/31 07:35:56;;;;;;;2.47;2.15;;;16.80;86.40;;;;;;5031229;28;20069;-64
2023/08/31 07:38:21;;;;;;;2.20;2.00;;;16.90;86.60;;;;;;5030565;28;20125;-63
2023/08/31 07:40:47;;;;;;;2.42;1.90;;;16.90;86.70;;;;;;5029396;28;20057;-64
2023/08/31 07:43:13;;;;;;;2.42;2.00;;;16.90;86.60;;;;;;5030538;28;20037;-63
2023/08/31 07:45:39;;;;;;;1.70;1.60;;;16.90;86.50;;;;;;5028747;28;20037;-63
2023/08/31 07:48:05;;;;;;;4.00;2.00;;;16.90;86.40;;;;;;5030807;28;20041;-62
2023/08/31 07:50:31;;;;;;;2.22;1.75;;;16.90;86.30;;;;;;5032735;28;20077;-63
2023/08/31 07:52:56;;;;;;;2.70;1.80;;;16.90;86.20;;;;;;5032949;28;20133;-64
2023/08/31 07:55:22;;;;;;;1.95;1.70;;;16.90;86.00;;;;;;5032616;28;20037;-63
2023/08/31 07:57:48;;;;;;;3.00;1.80;;;16.90;86.00;;;;;;5029643;28;20106;-64
2023/08/31 08:00:14;;;;;;;3.13;1.98;;;17.00;86.00;;;;;;5028050;28;20122;-62
2023/08/31 08:02:40;;;;;;;3.80;1.90;;;17.00;86.70;;;;;;5025945;28;20198;-64
2023/08/31 08:05:06;;;;;;;2.75;1.80;;;17.00;85.80;;;;;;5029973;28;20528;-63
2023/08/31 08:07:32;;;;;;;2.47;1.75;;;17.00;85.80;;;;;;5033922;28;20056;-63
2023/08/31 08:09:57;;;;;;;4.13;2.30;;;17.00;85.80;;;;;;5033422;28;20390;-63
2023/08/31 08:12:25;;;;;;;4.07;2.28;;;17.00;85.70;;;;;;5028894;28;20124;-62
2023/08/31 08:14:50;;;;;;;3.38;2.30;;;17.00;86.00;;;;;;5026183;28;20116;-63
2023/08/31 08:17:16;;;;;;;3.17;2.40;;;17.00;86.90;;;;;;5032639;28;20460;-63
2023/08/31 08:19:41;;;;;;;1.95;1.85;;;16.90;86.10;;;;;;5028327;28;20030;-63
2023/08/31 08:22:07;;;;;;;3.03;2.53;;;16.90;86.40;;;;;;5026778;28;20046;-64
2023/08/31 08:24:33;;;;;;;2.70;2.28;;;16.90;86.30;;;;;;5029746;28;20068;-63
2023/08/31 08:26:58;;;;;;;3.38;1.95;;;17.00;85.90;;;;;;5026205;28;20033;-64
2023/08/31 08:29:24;;;;;;;2.97;1.92;;;16.90;85.50;;;;;;5028785;28;20090;-63
2023/08/31 08:31:50;;;;;;;2.65;1.98;;;17.00;85.50;;;;;;5030035;28;20041;-64
2023/08/31 08:34:16;;;;;;;2.88;1.88;;;17.00;85.10;;;;;;5027574;28;21028;-64
2023/08/31 08:36:41;;;;;;;2.80;2.05;;;17.10;84.00;;;;;;5026084;28;20038;-63
2023/08/31 08:39:07;;;;;;;2.75;1.88;;;17.10;84.00;;;;;;5029908;28;20033;-64
2023/08/31 08:41:33;;;;;;;5.22;1.73;;;17.10;84.00;;;;;;5033248;28;20131;-63
2023/08/31 08:44:03;;;;;;;2.33;1.85;;;17.10;84.20;;;;;;5030731;28;20569;-63
2023/08/31 08:46:30;;;;;;;2.80;1.67;;;17.20;83.70;;;;;;5030213;28;20595;-63
2023/08/31 08:49:00;;;;;;;2.70;1.42;;;17.20;82.70;;;;;;5032663;28;20049;-63
2023/08/31 08:51:27;;;;;;;3.13;1.52;;;17.30;81.00;;;;;;5032844;28;20045;-63
2023/08/31 08:53:54;;;;;;;6.28;1.63;;;17.30;80.00;;;;;;5029586;28;20575;-64
2023/08/31 08:56:19;;;;;;;4.10;1.80;;;17.30;80.00;;;;;;5030475;28;20078;-64
2023/08/31 08:58:45;;;;;;;5.13;1.50;;;17.30;80.00;;;;;;5025682;28;20042;-64
2023/08/31 09:01:11;;;;;;;1.92;1.35;;;17.30;78.30;;;;;;5028948;28;21399;-63
2023/08/31 09:03:36;;;;;;;3.30;1.40;;;17.30;77.20;;;;;;5028855;28;20041;-63
2023/08/31 09:06:04;;;;;;;4.00;1.30;;;17.30;75.40;;;;;;5030245;28;20034;-63
2023/08/31 09:08:30;;;;;;;3.67;1.45;;;17.30;73.40;;;;;;5027720;28;20047;-64
2023/08/31 09:10:59;;;;;;;3.53;1.30;;;17.30;72.50;;;;;;5027292;28;20540;-63
2023/08/31 09:13:29;;;;;;;2.10;1.15;;;17.30;71.40;;;;;;5023034;28;20060;-63
2023/08/31 09:15:56;;;;;;;2.75;1.30;;;17.30;70.20;;;;;;5032571;28;20117;-64
2023/08/31 09:18:26;;;;;;;2.75;1.30;;;17.30;71.10;;;;;;5032651;28;20033;-63
2023/08/31 09:20:52;;;;;;;2.55;1.30;;;17.20;71.70;;;;;;5032535;28;20029;-63
2023/08/31 09:23:18;;;;;;;2.35;1.20;;;17.30;71.80;;;;;;5032131;28;20095;-63
2023/08/31 09:25:46;;;;;;;4.30;1.30;;;17.20;71.10;;;;;;5030007;28;20033;-63
2023/08/31 09:28:13;;;;;;;2.38;1.00;;;17.20;71.70;;;;;;5027037;28;20041;-63
2023/08/31 09:30:40;;;;;;;2.33;1.20;;;17.30;71.50;;;;;;5026302;28;20448;-63
2023/08/31 09:33:13;;;;;;;3.92;1.48;;;17.30;71.40;;;;;;5027403;28;20061;-63
2023/08/31 09:35:40;;;;;;;4.32;1.60;;;17.40;70.90;;;;;;5028705;28;20030;-64
2023/08/31 09:38:09;;;;;;;2.70;1.40;;;17.50;70.90;;;;;;5026878;28;20042;-64
2023/08/31 09:40:38;;;;;;;2.83;1.20;;;17.50;69.90;;;;;;5029263;28;20060;-62
2023/08/31 09:43:04;;;;;;;4.45;1.30;;;17.50;70.00;;;;;;5027401;28;20041;-64
2023/08/31 09:45:31;;;;;;;3.03;1.25;;;17.50;71.00;;;;;;5030398;28;20084;-64
2023/08/31 09:48:00;;;;;;;2.10;1.30;;;17.60;71.10;;;;;;5029996;28;20033;-64
2023/08/31 09:50:33;;;;;;;2.30;1.20;;;17.70;70.90;;;;;;5028219;28;20064;-63
2023/08/31 09:53:03;;;;;;;2.55;1.33;;;17.70;71.20;;;;;;5031155;28;20044;-64
2023/08/31 09:55:30;;;;;;;2.65;1.50;;;17.70;72.10;;;;;;5033020;28;20045;-63
2023/08/31 09:57:58;;;;;;;3.47;1.20;;;17.80;71.40;;;;;;5031590;28;20045;-63
2023/08/31 10:00:28;;;;;;;2.22;1.30;;;17.80;71.10;;;;;;5033949;28;20038;-63
2023/08/31 10:02:56;;;;;;;3.22;1.25;;;17.90;70.70;;;;;;5030594;28;20119;-63
2023/08/31 10:05:22;;;;;;;2.33;1.30;;;18.00;70.90;;;;;;5035160;28;20029;-63
2023/08/31 10:07:50;;;;;;;3.92;1.15;;;18.00;68.40;;;;;;5034342;28;20318;-63
2023/08/31 10:10:16;;;;;;;3.10;1.30;;;18.10;67.80;;;;;;5034937;28;20025;-63
2023/08/31 10:12:44;;;;;;;3.53;1.13;;;18.10;66.50;;;;;;5033327;28;20623;-63
2023/08/31 10:15:10;;;;;;;3.08;1.20;;;18.10;66.20;;;;;;5038023;28;20484;-63
2023/08/31 10:17:36;;;;;;;3.42;1.45;;;18.10;66.10;;;;;;5038114;28;20503;-63
2023/08/31 10:20:02;;;;;;;2.90;1.30;;;18.10;66.00;;;;;;5036863;28;20055;-63
2023/08/31 10:22:30;;;;;;;2.97;1.40;;;18.10;66.00;;;;;;5036608;28;20449;-64
2023/08/31 10:24:59;;;;;;;1.40;1.10;;;18.10;65.90;;;;;;5034850;28;20382;-63
2023/08/31 10:27:25;;;;;;;3.08;1.20;;;18.20;64.10;;;;;;5035335;28;20037;-62
2023/08/31 10:29:51;;;;;;;3.13;1.13;;;18.20;65.30;;;;;;5034229;28;20103;-64
2023/08/31 10:32:21;;;;;;;2.38;1.42;;;18.20;66.40;;;;;;5035650;28;20053;-63
2023/08/31 10:35:06;;;;;;;1.75;1.02;;;18.30;65.50;;;;;;5033931;28;20058;-63
2023/08/31 10:37:31;;;;;;;2.40;1.17;;;18.40;64.00;;;;;;5032412;28;20048;-63
2023/08/31 10:40:26;;;;;;;7.68;1.20;;;18.50;65.10;;;;;;5026572;28;20344;-63
2023/08/31 10:43:15;;;;;;;2.93;1.30;;;18.50;63.40;;;;;;5035029;28;20033;-63
2023/08/31 10:45:44;;;;;;;1.63;1.13;;;18.60;61.70;;;;;;5032386;28;20283;-64
2023/08/31 10:48:10;;;;;;;3.00;1.27;;;18.70;63.80;;;;;;5032296;28;20047;-64
2023/08/31 10:50:41;;;;;;;3.00;1.45;;;18.70;62.30;;;;;;5030837;28;20497;-63
2023/08/31 10:53:09;;;;;;;2.55;1.38;;;18.70;61.20;;;;;;5034992;28;20080;-63
2023/08/31 10:55:52;;;;;;;3.85;1.55;;;18.80;62.40;;;;;;5033794;28;20087;-63
2023/08/31 10:58:18;;;;;;;3.38;1.10;;;18.90;60.90;;;;;;5031714;28;20557;-63
2023/08/31 11:00:52;;;;;;;3.45;1.30;;;18.90;62.60;;;;;;5029742;28;20548;-60
2023/08/31 11:03:18;;;;;;;2.75;1.20;;;19.00;62.00;;;;;;5033759;28;20068;-63
2023/08/31 11:05:53;;;;;;;1.98;1.15;;;19.10;61.80;;;;;;5031756;28;20076;-63
2023/08/31 11:08:26;;;;;;;2.00;1.23;;;19.20;59.00;;;;;;5032475;28;20513;-63
2023/08/31 11:10:52;;;;;;;2.38;1.25;;;19.20;59.20;;;;;;5029009;28;20041;-63
2023/08/31 11:13:23;;;;;;;2.17;1.20;;;19.20;60.20;;;;;;5028308;28;20201;-63
2023/08/31 11:15:49;;;;;;;3.10;1.20;;;19.30;59.60;;;;;;5031714;28;20056;-64
2023/08/31 11:18:17;;;;;;;3.60;1.40;;;19.30;60.20;;;;;;5033756;28;20042;-63
2023/08/31 11:20:43;;;;;;;3.35;1.42;;;19.40;59.40;;;;;;5021913;28;20539;-63
2023/08/31 11:23:09;;;;;;;4.63;1.20;;;19.40;59.30;;;;;;5029422;28;20038;-63
2023/08/31 11:25:35;;;;;;;4.03;1.20;;;19.40;59.40;;;;;;5032829;28;20060;-64
2023/08/31 11:28:07;;;;;;;2.83;1.45;;;19.30;59.50;;;;;;5029871;28;20523;-63
2023/08/31 11:30:33;;;;;;;3.25;1.20;;;19.30;57.70;;;;;;5029121;28;20033;-64
2023/08/31 11:33:04;;;;;;;1.67;1.15;;;19.30;59.00;;;;;;5031815;28;20437;-64
2023/08/31 11:35:36;;;;;;;2.58;1.15;;;19.30;59.70;;;;;;5032222;28;20091;-64
2023/08/31 11:38:05;;;;;;;3.55;1.08;;;19.20;59.80;;;;;;5030730;28;20045;-63
2023/08/31 11:40:31;;;;;;;3.33;1.35;;;19.20;60.50;;;;;;5032252;28;20038;-63
2023/08/31 11:43:00;;;;;;;3.50;1.40;;;19.20;60.80;;;;;;5028745;28;20265;-64
2023/08/31 11:45:27;;;;;;;2.30;1.20;;;19.20;61.00;;;;;;5031579;28;20118;-63
2023/08/31 11:47:53;;;;;;;4.05;1.50;;;19.20;61.80;;;;;;5029291;28;20036;-63
2023/08/31 11:50:20;;;;;;;2.92;1.38;;;19.20;62.00;;;;;;5033391;28;20033;-63
2023/08/31 11:52:46;;;;;;;3.30;1.40;;;19.30;62.30;;;;;;5030798;28;20049;-64
2023/08/31 11:55:14;;;;;;;2.63;1.00;;;19.40;62.90;;;;;;5034793;28;20121;-63
2023/08/31 11:57:40;;;;;;;2.20;1.20;;;19.50;62.00;;;;;;5036378;28;20033;-63
2023/08/31 12:00:06;;;;;;;3.70;1.30;;;19.60;62.70;;;;;;5029826;28;20116;-64
2023/08/31 12:02:35;;;;;;;1.75;1.02;;;19.70;62.70;;;;;;5026696;28;20034;-62
2023/08/31 12:05:01;;;;;;;2.67;1.20;;;19.80;62.10;;;;;;5029208;28;20583;-62
2023/08/31 12:07:27;;;;;;;3.03;1.38;;;19.90;62.50;;;;;;5031655;28;20192;-62
2023/08/31 12:09:52;;;;;;;2.72;1.00;;;20.00;60.90;;;;;;5029143;28;20041;-62
2023/08/31 12:12:21;;;;;;;3.17;1.20;;;20.10;61.30;;;;;;5024399;28;20553;-62
2023/08/31 12:14:47;;;;;;;2.67;1.40;;;20.20;61.40;;;;;;5028880;28;20052;-62
2023/08/31 12:17:13;;;;;;;1.95;1.13;;;20.30;61.00;;;;;;5029217;28;20497;-62
2023/08/31 12:19:39;;;;;;;1.67;1.20;;;20.30;60.80;;;;;;5032342;28;20407;-62
2023/08/31 12:22:07;;;;;;;4.45;1.25;;;20.40;60.10;;;;;;5027071;28;20750;-62
2023/08/31 12:24:40;;;;;;;2.25;1.20;;;20.40;60.60;;;;;;5027374;28;20072;-62
2023/08/31 12:27:07;;;;;;;2.88;1.40;;;20.50;59.80;;;;;;5032043;28;20033;-62
2023/08/31 12:29:33;;;;;;;1.45;1.05;;;20.50;60.00;;;;;;5029789;28;20079;-62
2023/08/31 12:31:58;;;;;;;2.10;1.10;;;20.60;60.10;;;;;;5027477;28;20440;-62
2023/08/31 12:34:24;;;;;;;2.72;1.23;;;20.50;60.00;;;;;;5027504;28;20033;-62
2023/08/31 12:36:49;;;;;;;3.45;1.33;;;20.50;59.40;;;;;;5026895;28;20033;-62
2023/08/31 12:39:15;;;;;;;4.90;1.58;;;20.50;58.50;;;;;;5030045;28;20052;-60
2023/08/31 12:41:41;;;;;;;2.38;1.30;;;20.50;58.90;;;;;;5025702;28;20070;-62
2023/08/31 12:44:07;;;;;;;2.20;1.27;;;20.50;59.30;;;;;;5028572;28;20041;-62
2023/08/31 12:46:33;;;;;;;3.53;1.55;;;20.50;59.40;;;;;;5026236;28;20120;-62
2023/08/31 12:49:03;;;;;;;2.97;1.50;;;20.50;59.40;;;;;;5027194;28;20112;-62